Etusivu
METAR-TAF:

METAR-TAF

Lentoasemat :

Bemidji, Minnesota, Yhdysvallat

Leveyspiiri: 47-30N, Pituuspiiri: 094-56W, korkeus merenpinnasta: 423 m

Tämänhetkinen sää

Tämä raportti tehtiin 27 minuuttia sitten, kello 09.15 UTC
Tuuli 4 kn etelästä
Lämpötila -8°C
Kosteus 85%
Ilmanpaine 1006 hPa
Näkyvyys: 16.1 km
selkeää

METAR: KBJI 220915Z AUTO 18004KT 10SM CLR M08/M10 A2971 RMK AO2 T10811100

Aika: 03:42 (09:42 UTC)

Sääennuste

Tämä raportti tehtiin 4 tuntia ja 6 minuuttia sitten, kello 05.36 UTC
Ennuste voimassa 22. päivästä klo 06 UTC - 23. päivään klo 06 UTC
Tuuli 10 kn etelästä
Näkyvyys: 10 km
Pilvistä 15000 ft:n korkeudessa
From 22. päivästä klo 2200 UTC
Tuuli 6 kn eri suunnista
Näkyvyys: 10 km
Hajonneita pilviä 2500 ft:n korkeudessa
From 23. päivästä klo 0400 UTC
Tuuli kn pohjoisesta
Näkyvyys: 10 km
Hajonneita pilviä 800 ft:n korkeudessa

TAF: KBJI 220536Z 2206/2306 19010KT P6SM OVC150 FM222200 VRB06KT P6SM BKN025 FM230400 00000KT P6SM BKN008

Säähavainnot ja -ennusteet yli 4000 lentoasemalta (METAR- ja TAF-raportit).

Käytössä olevat sääasemat on merkitty karttaan keltaisilla ja punaisilla pisteillä.

Aseta hiiri pisteen päälle nähdäksesi sääaseman nimen.

Klikkaa sitten nähdäksesi säähavainnot ja -ennusteet.

Kartan vaihtaminen: klikkaa mustalla rastilla varustettuja vihreitä pisteitä, niin voit zoomata sisään; viivalla varustettua vihreää pistettä, niin voit zoomata ulos tai vihreitä nuolia, niin pääset viereisille kartoille.


METAR-TAF: